Nearby METAR Reports

 

LQSA - Sarajevo/Butmir, Bosnia-Herzegovina
Distance from station: JZ 10km
Obnovljeno: 26/06/2016 19:00

Light thunderstorm, Kiša, Uglavnom oblačno

Vjetar: IJI 9 km/h
Temperatura: 16°C
Tačka rosišta: 15°C
Vlažnost: 94%
Barometarski pritisak: 1020 hPa
Pregled: Light thunderstorm, Kiša
Clouds: Uglavnom oblačno
Visibility: 8 km
Cloud details: Few Clouds 305 m
Djelimično oblačno 914 m
Uglavnom oblačno 2134 m
2016/06/26 17:00 LQSA 261700Z 12005KT 060V190 8000 -TSRA FEW010 SCT030CB BKN070 16/15 Q1020 RERA NOSIG
LQTZ - Tuzla, Bosnia-Herzegovina
Distance from station: SSI 71km
Obnovljeno: 26/06/2016 19:00

Thunderstorm, Djelimično oblačno

Vjetar: SZ 9 km/h
Temperatura: 22°C
Tačka rosišta: 19°C
Vlažnost: 83%
Barometarski pritisak: 1014 hPa
Pregled: Thunderstorm
Clouds: Djelimično oblačno
Visibility: 10 km
Cloud details: Few Clouds 1219 m
Djelimično oblačno 1524 m
2016/06/26 17:00 LQTZ 261700Z 32005KT 9999 TS FEW040CB SCT050 22/19 Q1014
 
LQMO - Mostar Airport, Bosnia-Herzegovina
Distance from station: JZ 79km
Obnovljeno: 26/06/2016 19:00

Laka kiša, Thunderstorm, Natmureno

Vjetar: SSI 11 km/h
Temperatura: 21°C
Tačka rosišta: 19°C
Vlažnost: 88%
Barometarski pritisak: 1013 hPa
Pregled: Laka kiša, Thunderstorm
Clouds: Natmureno
Visibility: 10 km
Cloud details: Natmureno 914 m
2016/06/26 17:00 LQMO 261700Z 03006KT 280V070 9999 -RA TS OVC030CB 21/19 Q1013
LDDU - Dubrovnik-Cilipi, Croatia
Distance from station: J 145km
Obnovljeno: 26/06/2016 19:00

Djelimično oblačno

Vjetar: I 17 km/h
Temperatura: 24°C
Tačka rosišta: 23°C
Vlažnost: 94%
Barometarski pritisak: 1013 hPa
Clouds: Djelimično oblačno
Visibility: 10 km
Cloud details: Djelimično oblačno 1372 m
2016/06/26 17:00 LDDU 261700Z 08009KT 9999 SCT045 24/23 Q1013 NOSIG
 
LQBK - Banja Luka, Bosnia-Herzegovina
Distance from station: SZ 148km
Obnovljeno: 26/06/2016 19:00

Few Clouds

Vjetar: SSZ 4 km/h
Temperatura: 29°C
Heat Index: 31°C
Tačka rosišta: 20°C
Vlažnost: 58%
Barometarski pritisak: 1013 hPa
Clouds: Few Clouds
Visibility: 10 km
Cloud details: Few Clouds 1372 m
2016/06/26 17:00 LQBK 261700Z 33002KT 9999 FEW045 29/20 Q1013 NOSIG
LDSB - Bol Airport, Croatia
Distance from station: ZJZ 154km
Obnovljeno: 26/06/2016 19:00

Čisto

Vjetar: ISI 13 km/h
Temperatura: 27°C
Heat Index: 27°C
Tačka rosišta: 14°C
Vlažnost: 45%
Barometarski pritisak: 1014 hPa
Pregled: Čisto
Visibility: greater than 10 km
2016/06/26 17:00 LDSB 261700Z 06007KT 040V100 CAVOK 27/14 Q1014
 
LYTV - Tivat, Bosnia-Herzegovina
Distance from station: J 167km
Obnovljeno: 26/06/2016 19:00

Few Clouds

Vjetar: J 7 km/h
Temperatura: 26°C
Tačka rosišta: 20°C
Vlažnost: 70%
Barometarski pritisak: 1011 hPa
Clouds: Few Clouds
Visibility: 10 km
Cloud details: Few Clouds 1524 m
2016/06/26 17:00 LYTV 261700Z 19004KT 150V240 9999 FEW050 26/20 Q1011 NOSIG
LDSP - Split/Kastel Sta, Croatia
Distance from station: ZJZ 175km
Obnovljeno: 26/06/2016 19:00

Čisto

Vjetar: I 13 km/h
Temperatura: 30°C
Tačka rosišta: 14°C
Vlažnost: 38%
Barometarski pritisak: 1010 hPa
Pregled: Čisto
Visibility: greater than 10 km
2016/06/26 17:00 LDSP 261700Z 09007KT 060V120 CAVOK 30/14 Q1010 NOSIG